Time;durP1;ratioP1;P1;durP2;ratioP2;P2;SDS_P1;SDS_P2;PMS_P1;PMS_P2;Temp;Humidity;BMP_temperature;BMP_pressure;BME280_temperature;BME280_humidity;BME280_pressure;Samples;Min_cycle;Max_cycle;Signal;HPM_P1;HPM_P2
2024/01/07 00:00:41;;;;;;;45.35;17.00;;;;;;;-0.12;100.00;98180.88;6109067;19;20470;-71
2024/01/07 00:02:42;;;;;;;44.28;14.88;;;;;;;-0.17;100.00;98181.81;6107274;19;20011;-71
2024/01/07 00:04:42;;;;;;;52.28;16.17;;;;;;;-0.23;100.00;98180.38;6109707;19;20011;-71
2024/01/07 00:06:42;;;;;;;34.95;14.88;;;;;;;-0.28;100.00;98189.47;6107420;19;20010;-71
2024/01/07 00:08:43;;;;;;;45.38;14.55;;;;;;;-0.31;100.00;98181.16;6108240;19;20026;-71
2024/01/07 00:10:43;;;;;;;46.13;16.23;;;;;;;-0.28;100.00;98189.47;6108200;19;20011;-71
2024/01/07 00:12:44;;;;;;;38.72;15.73;;;;;;;-0.28;100.00;98177.78;6107250;19;20011;-71
2024/01/07 00:14:44;;;;;;;40.00;15.23;;;;;;;-0.26;100.00;98191.84;6108799;19;20010;-71
2024/01/07 00:16:44;;;;;;;45.28;15.75;;;;;;;-0.33;100.00;98188.81;6108728;19;20606;-72
2024/01/07 00:18:44;;;;;;;40.75;16.35;;;;;;;-0.30;100.00;98197.13;6108334;19;20007;-72
2024/01/07 00:20:45;;;;;;;38.10;14.35;;;;;;;-0.31;100.00;98200.16;6108989;19;20484;-71
2024/01/07 00:22:45;;;;;;;40.75;15.38;;;;;;;-0.32;100.00;98195.84;6107714;19;20086;-71
2024/01/07 00:24:45;;;;;;;45.50;16.92;;;;;;;-0.35;100.00;98202.69;6107292;19;20107;-71
2024/01/07 00:26:46;;;;;;;47.95;16.65;;;;;;;-0.38;100.00;98200.63;6108232;19;20062;-71
2024/01/07 00:28:46;;;;;;;39.30;17.35;;;;;;;-0.37;100.00;98209.56;6107567;19;20003;-71
2024/01/07 00:30:46;;;;;;;33.00;14.43;;;;;;;-0.35;100.00;98210.06;6107309;19;20007;-71
2024/01/07 00:32:47;;;;;;;32.08;13.85;;;;;;;-0.40;100.00;98219.16;6104789;19;20003;-71
2024/01/07 00:34:47;;;;;;;35.17;12.65;;;;;;;-0.37;100.00;98215.81;6107563;19;20015;-71
2024/01/07 00:36:47;;;;;;;33.92;14.23;;;;;;;-0.36;100.00;98216.59;6108462;19;20350;-71
2024/01/07 00:38:48;;;;;;;37.85;14.73;;;;;;;-0.39;100.00;98209.09;6109009;19;20450;-71
2024/01/07 00:40:48;;;;;;;34.92;13.68;;;;;;;-0.39;100.00;98217.25;6108221;19;20066;-71
2024/01/07 00:42:48;;;;;;;41.20;14.95;;;;;;;-0.38;100.00;98219.66;6105938;19;20026;-71
2024/01/07 00:44:49;;;;;;;34.80;14.40;;;;;;;-0.41;100.00;98220.28;6108731;19;20074;-71
2024/01/07 00:46:49;;;;;;;35.25;13.45;;;;;;;-0.43;100.00;98225.19;6107941;19;20018;-72
2024/01/07 00:48:49;;;;;;;30.83;12.48;;;;;;;-0.41;100.00;98230.34;6103198;19;20010;-71
2024/01/07 00:50:50;;;;;;;25.55;11.93;;;;;;;-0.43;100.00;98224.41;6100584;19;20463;-71
2024/01/07 00:52:51;;;;;;;27.77;11.63;;;;;;;-0.43;100.00;98233.34;6098841;19;20011;-71
2024/01/07 00:54:51;;;;;;;29.20;13.27;;;;;;;-0.43;100.00;98227.13;6100033;19;20030;-71
2024/01/07 00:56:52;;;;;;;31.80;13.40;;;;;;;-0.49;100.00;98236.53;6100279;19;20010;-71
2024/01/07 00:58:52;;;;;;;32.78;15.38;;;;;;;-0.55;100.00;98232.34;6099505;19;20006;-71
2024/01/07 01:00:53;;;;;;;30.88;13.88;;;;;;;-0.54;100.00;98234.75;6100254;19;20014;-71
2024/01/07 01:02:54;;;;;;;34.65;16.15;;;;;;;-0.60;100.00;98234.06;6099014;19;20013;-71
2024/01/07 01:04:54;;;;;;;37.05;14.93;;;;;;;-0.63;100.00;98234.69;6100840;19;20015;-71
2024/01/07 01:06:54;;;;;;;30.65;14.07;;;;;;;-0.66;100.00;98240.75;6097912;19;20009;-71
2024/01/07 01:08:55;;;;;;;32.53;12.85;;;;;;;-0.59;100.00;98240.31;6098807;19;20006;-71
2024/01/07 01:10:55;;;;;;;27.58;13.30;;;;;;;-0.53;100.00;98241.78;6099447;19;20533;-71
2024/01/07 01:12:55;;;;;;;28.38;13.25;;;;;;;-0.60;100.00;98247.66;6098210;19;20011;-71
2024/01/07 01:14:56;;;;;;;36.50;14.18;;;;;;;-0.58;100.00;98250.06;6099672;19;20010;-71
2024/01/07 01:16:56;;;;;;;33.85;13.98;;;;;;;-0.65;100.00;98245.09;6099729;19;20252;-71
2024/01/07 01:18:56;;;;;;;38.83;15.07;;;;;;;-0.65;100.00;98255.16;6101191;19;20109;-71
2024/01/07 01:20:57;;;;;;;37.00;15.38;;;;;;;-0.75;100.00;98252.66;6105079;19;20404;-71
2024/01/07 01:22:57;;;;;;;36.60;14.07;;;;;;;-0.71;100.00;98261.81;6103967;19;20025;-71
2024/01/07 01:24:57;;;;;;;38.38;16.25;;;;;;;-0.77;100.00;98263.03;6105472;19;20021;-71
2024/01/07 01:26:58;;;;;;;33.88;15.38;;;;;;;-0.81;100.00;98257.44;6104446;19;20013;-71
2024/01/07 01:28:58;;;;;;;36.85;14.57;;;;;;;-0.78;100.00;98256.00;6105076;19;20007;-71
2024/01/07 01:30:58;;;;;;;36.13;14.60;;;;;;;-0.79;100.00;98265.28;6104434;19;20119;-71
2024/01/07 01:32:58;;;;;;;34.50;15.07;;;;;;;-0.82;100.00;98263.97;6103613;19;20018;-71
2024/01/07 01:34:59;;;;;;;35.70;14.35;;;;;;;-0.81;100.00;98262.06;6104261;19;20473;-71
2024/01/07 01:36:59;;;;;;;36.85;12.77;;;;;;;-0.79;100.00;98273.41;6104765;19;20330;-71
2024/01/07 01:38:59;;;;;;;27.83;13.60;;;;;;;-0.82;100.00;98272.13;6104120;19;20045;-71
2024/01/07 01:41:00;;;;;;;38.55;15.57;;;;;;;-0.84;100.00;98279.75;6105239;19;20007;-71
2024/01/07 01:43:00;;;;;;;39.72;14.65;;;;;;;-0.90;100.00;98273.66;6102701;19;20007;-71
2024/01/07 01:45:02;;;;;;;39.05;14.00;;;;;;;-0.95;100.00;98287.34;6105371;19;20431;-71
2024/01/07 01:47:02;;;;;;;30.98;14.38;;;;;;;-0.98;100.00;98284.47;6104493;19;20784;-71
2024/01/07 01:49:03;;;;;;;33.83;13.88;;;;;;;-1.04;100.00;98291.91;6106102;19;20009;-71
2024/01/07 01:51:04;;;;;;;36.65;13.93;;;;;;;-1.01;100.00;98291.28;6112378;19;20003;-71
2024/01/07 01:53:04;;;;;;;35.70;14.60;;;;;;;-0.98;100.00;98293.41;6110932;19;20002;-71
2024/01/07 01:55:05;;;;;;;32.72;13.93;;;;;;;-1.01;100.00;98295.91;6112038;19;20102;-71
2024/01/07 01:57:05;;;;;;;32.08;13.30;;;;;;;-0.98;100.00;98303.47;6112199;19;20791;-71
2024/01/07 01:59:06;;;;;;;26.27;11.70;;;;;;;-1.03;100.00;98309.81;6112137;19;20007;-71
2024/01/07 02:01:06;;;;;;;26.48;11.05;;;;;;;-1.06;100.00;98304.19;6111576;19;20026;-71
2024/01/07 02:03:07;;;;;;;21.50;10.23;;;;;;;-1.00;100.00;98302.97;6111127;19;20003;-71
2024/01/07 02:05:07;;;;;;;22.08;10.13;;;;;;;-1.06;100.00;98307.72;6112158;19;20316;-71
2024/01/07 02:07:07;;;;;;;18.20;9.23;;;;;;;-1.03;100.00;98300.88;6111210;19;20003;-71
2024/01/07 02:09:08;;;;;;;21.85;9.57;;;;;;;-1.00;100.00;98308.38;6111862;19;20002;-71
2024/01/07 02:11:21;;;;;;;24.80;10.18;;;;;;;-0.99;100.00;98301.88;6111255;19;20443;-71
2024/01/07 02:13:21;;;;;;;23.25;9.45;;;;;;;-1.02;100.00;98307.91;6110464;19;20339;-71
2024/01/07 02:15:21;;;;;;;19.27;9.82;;;;;;;-1.03;100.00;98317.16;6111732;19;20003;-71
2024/01/07 02:17:22;;;;;;;22.83;9.95;;;;;;;-1.01;100.00;98315.72;6110449;19;20006;-71
2024/01/07 02:19:22;;;;;;;23.10;10.25;;;;;;;-1.04;100.00;98319.06;6110822;19;20027;-71
2024/01/07 02:21:23;;;;;;;23.00;9.82;;;;;;;-0.99;100.00;98323.59;6110426;19;20594;-71
2024/01/07 02:23:23;;;;;;;22.88;11.02;;;;;;;-1.00;100.00;98314.63;6109743;19;20009;-71
2024/01/07 02:25:24;;;;;;;21.17;10.48;;;;;;;-0.99;100.00;98320.88;6111107;19;20392;-71
2024/01/07 02:27:24;;;;;;;24.23;10.88;;;;;;;-1.01;100.00;98318.44;6110722;19;20002;-71
2024/01/07 02:29:24;;;;;;;18.33;10.27;;;;;;;-0.94;100.00;98320.75;6110931;19;20011;-71
2024/01/07 02:31:24;;;;;;;17.50;9.25;;;;;;;-0.98;100.00;98322.50;6110048;19;20542;-71
2024/01/07 02:33:25;;;;;;;17.08;8.63;;;;;;;-0.99;100.00;98332.56;6109686;19;20320;-71
2024/01/07 02:35:25;;;;;;;18.60;8.52;;;;;;;-1.05;100.00;98328.34;6110920;19;20006;-71
2024/01/07 02:37:26;;;;;;;21.70;10.73;;;;;;;-1.11;100.00;98339.59;6110808;19;20006;-72
2024/01/07 02:39:26;;;;;;;17.20;9.50;;;;;;;-1.11;100.00;98334.97;6110049;19;20003;-72
2024/01/07 02:41:26;;;;;;;16.15;8.88;;;;;;;-1.10;100.00;98343.91;6111497;19;20485;-72
2024/01/07 02:43:27;;;;;;;17.98;8.73;;;;;;;-1.22;100.00;98336.31;6109688;19;20028;-71
2024/01/07 02:45:27;;;;;;;19.27;10.15;;;;;;;-1.24;100.00;98342.06;6111327;19;20003;-71
2024/01/07 02:47:27;;;;;;;16.83;9.63;;;;;;;-1.21;100.00;98349.56;6110561;19;20013;-71
2024/01/07 02:49:28;;;;;;;19.40;9.70;;;;;;;-1.23;100.00;98337.44;6110964;19;20017;-71
2024/01/07 02:51:28;;;;;;;19.77;9.98;;;;;;;-1.24;100.00;98338.50;6110115;19;20003;-71
2024/01/07 02:53:28;;;;;;;16.95;9.30;;;;;;;-1.23;100.00;98348.28;6108732;19;20314;-71
2024/01/07 02:55:29;;;;;;;18.05;9.63;;;;;;;-1.25;100.00;98335.00;6111514;19;20002;-71
2024/01/07 02:57:29;;;;;;;23.95;10.95;;;;;;;-1.27;100.00;98344.56;6109674;19;20490;-71
2024/01/07 02:59:29;;;;;;;17.75;9.88;;;;;;;-1.24;100.00;98346.66;6110154;19;20054;-71
2024/01/07 03:01:30;;;;;;;17.20;9.55;;;;;;;-1.24;100.00;98347.47;6110849;19;20006;-71
2024/01/07 03:03:30;;;;;;;18.02;10.10;;;;;;;-1.31;100.00;98352.50;6109724;19;20080;-71
2024/01/07 03:05:32;;;;;;;16.98;8.95;;;;;;;-1.26;100.00;98327.97;6109919;19;20014;-71
2024/01/07 03:07:32;;;;;;;19.35;8.90;;;;;;;-1.26;100.00;98343.44;6110451;19;20010;-71
2024/01/07 03:09:33;;;;;;;16.88;8.77;;;;;;;-1.28;100.00;98351.91;6109141;19;20347;-71
2024/01/07 03:11:33;;;;;;;17.17;8.27;;;;;;;-1.23;100.00;98349.09;6110303;19;19999;-71
2024/01/07 03:13:34;;;;;;;15.45;8.40;;;;;;;-1.29;100.00;98349.50;6109074;19;20371;-71
2024/01/07 03:15:34;;;;;;;17.13;8.68;;;;;;;-1.36;100.00;98344.47;6109916;19;19998;-71
2024/01/07 03:17:35;;;;;;;18.35;9.27;;;;;;;-1.34;100.00;98353.09;6109713;19;20334;-71
2024/01/07 03:19:37;;;;;;;15.43;7.53;;;;;;;-1.41;100.00;98350.00;6110176;19;20026;-71
2024/01/07 03:21:37;;;;;;;15.43;7.88;;;;;;;-1.39;100.00;98345.09;6110212;19;20008;-71
2024/01/07 03:23:38;;;;;;;18.08;8.73;;;;;;;-1.38;100.00;98352.13;6108358;19;20005;-71
2024/01/07 03:25:38;;;;;;;15.60;7.68;;;;;;;-1.35;100.00;98361.56;6109765;19;20007;-71
2024/01/07 03:27:38;;;;;;;15.77;7.55;;;;;;;-1.33;100.00;98365.56;6109747;19;20326;-71
2024/01/07 03:29:39;;;;;;;15.38;8.77;;;;;;;-1.33;100.00;98362.03;6110123;19;20493;-71
2024/01/07 03:31:40;;;;;;;16.92;8.60;;;;;;;-1.33;100.00;98368.28;6110105;19;20479;-71
2024/01/07 03:33:41;;;;;;;15.38;8.40;;;;;;;-1.36;100.00;98368.09;6107594;19;20499;-71
2024/01/07 03:35:42;;;;;;;14.93;8.55;;;;;;;-1.43;100.00;98363.88;6110076;19;20007;-71
2024/01/07 03:37:42;;;;;;;13.40;7.28;;;;;;;-1.42;100.00;98360.03;6107600;19;20010;-71
2024/01/07 03:39:44;;;;;;;13.35;7.45;;;;;;;-1.50;100.00;98370.78;6109887;19;20471;-71
2024/01/07 03:41:44;;;;;;;14.23;7.37;;;;;;;-1.45;100.00;98359.84;6107559;19;20003;-71
2024/01/07 03:43:46;;;;;;;14.32;7.80;;;;;;;-1.46;100.00;98360.97;6108736;19;20258;-71
2024/01/07 03:45:49;;;;;;;14.25;8.07;;;;;;;-1.52;100.00;98362.16;6108873;19;20010;-71
2024/01/07 03:47:49;;;;;;;16.00;7.72;;;;;;;-1.53;100.00;98357.84;6109247;19;20245;-71
2024/01/07 03:49:50;;;;;;;14.25;7.32;;;;;;;-1.52;100.00;98362.97;6109552;19;20455;-71
2024/01/07 03:51:50;;;;;;;14.32;7.65;;;;;;;-1.56;100.00;98363.88;6109548;19;20006;-71
2024/01/07 03:53:50;;;;;;;13.80;7.18;;;;;;;-1.53;100.00;98355.94;6107825;19;20610;-71
2024/01/07 03:55:50;;;;;;;15.98;8.18;;;;;;;-1.57;100.00;98367.69;6109290;19;20014;-72
2024/01/07 03:57:51;;;;;;;14.35;7.53;;;;;;;-1.59;100.00;98370.69;6108728;19;20739;-72
2024/01/07 03:59:51;;;;;;;11.73;7.00;;;;;;;-1.56;100.00;98372.03;6109051;19;20459;-72
2024/01/07 04:01:54;;;;;;;15.02;8.00;;;;;;;-1.67;100.00;98379.53;6108941;19;20006;-72
2024/01/07 04:03:54;;;;;;;15.98;7.85;;;;;;;-1.71;100.00;98373.13;6109763;19;20066;-72
2024/01/07 04:05:55;;;;;;;16.75;7.65;;;;;;;-1.68;100.00;98387.97;6109199;19;20044;-72
2024/01/07 04:07:56;;;;;;;14.88;7.93;;;;;;;-1.82;100.00;98380.66;6107467;19;20018;-72
2024/01/07 04:09:56;;;;;;;13.20;7.32;;;;;;;-1.85;100.00;98383.94;6108723;19;20010;-72
2024/01/07 04:11:56;;;;;;;12.10;7.57;;;;;;;-1.83;100.00;98391.78;6108376;19;20002;-72
2024/01/07 04:13:57;;;;;;;14.05;7.82;;;;;;;-1.78;100.00;98387.06;6107628;19;20010;-72
2024/01/07 04:15:57;;;;;;;13.05;8.05;;;;;;;-1.79;100.00;98388.19;6109231;19;20462;-72
2024/01/07 04:18:01;;;;;;;13.20;8.00;;;;;;;-1.86;100.00;98390.47;6108419;19;20007;-72
2024/01/07 04:20:01;;;;;;;15.88;8.80;;;;;;;-1.87;100.00;98382.63;6108528;19;20022;-72
2024/01/07 04:22:02;;;;;;;17.00;8.98;;;;;;;-1.85;100.00;98391.28;6106770;19;19998;-72
2024/01/07 04:24:02;;;;;;;15.80;8.90;;;;;;;-1.84;100.00;98398.31;6107150;19;20050;-72
2024/01/07 04:26:03;;;;;;;15.52;8.23;;;;;;;-1.85;100.00;98396.69;6108601;19;20022;-72
2024/01/07 04:28:03;;;;;;;14.05;8.70;;;;;;;-1.86;100.00;98401.31;6107317;19;20011;-71
2024/01/07 04:30:05;;;;;;;18.63;8.52;;;;;;;-1.91;100.00;98400.59;6107988;19;20451;-71
2024/01/07 04:32:05;;;;;;;14.50;8.67;;;;;;;-1.88;100.00;98405.44;6107804;19;20017;-71
2024/01/07 04:34:06;;;;;;;13.43;7.28;;;;;;;-1.91;100.00;98406.00;6106574;19;19998;-71
2024/01/07 04:36:06;;;;;;;14.13;8.30;;;;;;;-1.86;100.00;98400.50;6108061;19;20451;-71
2024/01/07 04:38:08;;;;;;;15.90;8.10;;;;;;;-1.96;100.00;98409.63;6106510;19;20011;-71
2024/01/07 04:40:09;;;;;;;18.55;9.85;;;;;;;-1.97;100.00;98416.16;6108643;19;20362;-72
2024/01/07 04:42:09;;;;;;;17.38;8.60;;;;;;;-1.97;100.00;98410.75;6106962;19;20034;-72
2024/01/07 04:44:10;;;;;;;15.55;8.38;;;;;;;-1.99;100.00;98419.19;6106079;19;20015;-72
2024/01/07 04:46:11;;;;;;;16.05;9.25;;;;;;;-2.05;100.00;98423.06;6107963;19;20595;-72
2024/01/07 04:48:11;;;;;;;19.63;9.68;;;;;;;-2.09;100.00;98429.38;6098045;19;20444;-71
2024/01/07 04:50:13;;;;;;;14.15;8.70;;;;;;;-2.16;100.00;98418.91;6106452;19;20003;-71
2024/01/07 04:52:14;;;;;;;;;;;;;;;-2.12;100.00;98425.34;6107236;19;20290;-72
2024/01/07 04:54:14;;;;;;;16.58;8.27;;;;;;;-2.09;100.00;98429.38;6112314;19;19966;-71
2024/01/07 04:56:14;;;;;;;14.90;8.68;;;;;;;-2.11;100.00;98421.53;6111068;19;20406;-71
2024/01/07 04:58:14;;;;;;;17.80;8.80;;;;;;;-2.00;100.00;98439.22;6113387;19;20023;-71
2024/01/07 05:00:15;;;;;;;18.17;9.68;;;;;;;-2.10;100.00;98428.56;6113942;19;20003;-71
2024/01/07 05:02:15;;;;;;;16.27;8.07;;;;;;;-2.10;100.00;98431.28;6112509;19;20328;-71
2024/01/07 05:04:16;;;;;;;14.68;8.95;;;;;;;-2.13;100.00;98436.50;6110845;19;20003;-71
2024/01/07 05:06:16;;;;;;;17.92;9.73;;;;;;;-2.14;100.00;98441.13;6112296;19;20006;-72
2024/01/07 05:08:16;;;;;;;14.13;8.27;;;;;;;-2.11;100.00;98451.34;6111874;19;20011;-72
2024/01/07 05:10:17;;;;;;;14.13;8.20;;;;;;;-2.14;100.00;98443.03;6112159;19;20486;-72
2024/01/07 05:12:17;;;;;;;15.23;8.55;;;;;;;-2.15;100.00;98452.22;6112933;19;19998;-72
2024/01/07 05:14:17;;;;;;;13.40;7.20;;;;;;;-2.17;100.00;98446.31;6111291;19;20028;-72
2024/01/07 05:16:19;;;;;;;16.77;8.63;;;;;;;-2.15;100.00;98452.22;6112111;19;20353;-72
2024/01/07 05:18:23;;;;;;;17.77;9.32;;;;;;;-2.22;100.00;98460.75;6111627;19;20470;-72
2024/01/07 05:20:23;;;;;;;15.77;9.02;;;;;;;-2.18;100.00;98460.97;6112292;19;20098;-72
2024/01/07 05:22:24;;;;;;;19.35;9.85;;;;;;;-2.20;100.00;98455.84;6111078;19;20034;-72
2024/01/07 05:24:25;;;;;;;16.20;9.02;;;;;;;-2.14;100.00;98459.28;6111746;19;20018;-72
2024/01/07 05:26:25;;;;;;;17.83;9.52;;;;;;;-2.14;100.00;98470.94;6111676;19;20010;-72
2024/01/07 05:28:26;;;;;;;15.10;9.20;;;;;;;-2.12;100.00;98467.94;6112404;19;20011;-72
2024/01/07 05:30:26;;;;;;;14.90;9.27;;;;;;;-2.18;100.00;98460.97;6113025;19;20038;-72
2024/01/07 05:32:26;;;;;;;17.42;8.40;;;;;;;-2.18;100.00;98466.38;6111986;19;20550;-71
2024/01/07 05:34:27;;;;;;;14.88;8.02;;;;;;;-2.22;100.00;98471.59;6110678;19;20018;-72
2024/01/07 05:36:27;;;;;;;18.02;8.60;;;;;;;-2.20;100.00;98482.94;6112421;19;20015;-72
2024/01/07 05:38:28;;;;;;;15.10;7.88;;;;;;;-2.21;100.00;98480.53;6112731;19;20347;-72
2024/01/07 05:40:28;;;;;;;18.33;8.10;;;;;;;-2.23;100.00;98483.56;6112066;19;20032;-72
2024/01/07 05:42:28;;;;;;;16.25;9.18;;;;;;;-2.32;100.00;98483.41;6111914;19;20010;-71
2024/01/07 05:44:29;;;;;;;18.77;9.45;;;;;;;-2.35;100.00;98489.41;6109449;19;20011;-71
2024/01/07 05:46:29;;;;;;;14.52;7.78;;;;;;;-2.42;100.00;98488.94;6112172;19;20011;-71
2024/01/07 05:48:29;;;;;;;13.90;7.30;;;;;;;-2.40;100.00;98491.38;6108423;19;20018;-71
2024/01/07 05:50:30;;;;;;;15.07;8.25;;;;;;;-2.35;100.00;98494.00;6103540;19;20417;-71
2024/01/07 05:52:30;;;;;;;13.70;7.97;;;;;;;-2.39;100.00;98496.50;6103239;19;20050;-71
2024/01/07 05:54:30;;;;;;;12.05;7.90;;;;;;;-2.35;100.00;98504.84;6103742;19;20530;-71
2024/01/07 05:56:30;;;;;;;15.55;8.35;;;;;;;-2.41;100.00;98514.13;6103339;19;20434;-71
2024/01/07 05:58:31;;;;;;;14.63;7.80;;;;;;;-2.42;100.00;98499.78;6104030;19;20041;-71
2024/01/07 06:00:31;;;;;;;14.52;7.72;;;;;;;-2.44;100.00;98509.31;6103587;19;20094;-71
2024/01/07 06:02:34;;;;;;;12.75;7.70;;;;;;;-2.47;100.00;98513.44;6100950;19;20034;-71
2024/01/07 06:04:34;;;;;;;;;;;;;;;-2.52;100.00;98512.69;6102275;19;20123;-71
2024/01/07 06:06:35;;;;;;;14.05;7.57;;;;;;;-2.54;100.00;98515.69;6103381;19;20042;-71
2024/01/07 06:08:35;;;;;;;13.88;7.95;;;;;;;-2.53;100.00;98519.19;6101503;19;20010;-71
2024/01/07 06:10:36;;;;;;;13.40;7.50;;;;;;;-2.50;100.00;98518.59;6102808;19;20015;-71
2024/01/07 06:12:36;;;;;;;12.30;7.07;;;;;;;-2.55;100.00;98527.63;6101525;19;20039;-71
2024/01/07 06:14:36;;;;;;;11.98;6.78;;;;;;;-2.61;100.00;98529.59;6103627;19;20034;-71
2024/01/07 06:16:36;;;;;;;13.15;7.70;;;;;;;-2.66;100.00;98539.66;6101933;19;20342;-71
2024/01/07 06:18:37;;;;;;;14.65;7.38;;;;;;;-2.69;100.00;98538.34;6102287;19;20027;-71
2024/01/07 06:20:37;;;;;;;13.13;7.07;;;;;;;-2.66;100.00;98539.66;6103065;19;20437;-71
2024/01/07 06:22:37;;;;;;;15.02;7.70;;;;;;;-2.68;100.00;98542.66;6102014;19;20070;-71
2024/01/07 06:24:38;;;;;;;13.57;6.68;;;;;;;-2.67;100.00;98540.75;6102422;19;20080;-71
2024/01/07 06:26:38;;;;;;;16.20;7.55;;;;;;;-2.70;100.00;98558.41;6102349;19;20471;-71
2024/01/07 06:28:38;;;;;;;14.85;7.57;;;;;;;-2.75;100.00;98546.81;6103651;19;20039;-71
2024/01/07 06:30:39;;;;;;;12.60;7.18;;;;;;;-2.76;100.00;98561.47;6102782;19;20116;-71
2024/01/07 06:32:39;;;;;;;13.00;6.97;;;;;;;-2.85;100.00;98564.81;6101354;19;20025;-71
2024/01/07 06:34:39;;;;;;;16.05;8.77;;;;;;;-2.83;100.00;98567.22;6101718;19;20512;-72
2024/01/07 06:36:41;;;;;;;16.90;8.50;;;;;;;-3.00;100.00;98573.09;6101880;19;20078;-71
2024/01/07 06:38:41;;;;;;;13.30;7.55;;;;;;;-3.02;100.00;98578.00;6102122;19;20040;-70
2024/01/07 06:40:42;;;;;;;13.52;7.75;;;;;;;-2.94;100.00;98587.38;6101548;19;20080;-70
2024/01/07 06:42:43;;;;;;;14.73;7.72;;;;;;;-2.96;100.00;98578.75;6099186;19;20008;-72
2024/01/07 06:44:44;;;;;;;15.37;8.37;;;;;;;-2.98;100.00;98587.16;6101232;19;20025;-71
2024/01/07 06:46:44;;;;;;;12.43;7.80;;;;;;;-2.98;100.00;98586.34;6100299;19;20255;-70
2024/01/07 06:48:44;;;;;;;12.35;7.35;;;;;;;-2.90;100.00;98604.66;6102235;19;20002;-70
2024/01/07 06:50:44;;;;;;;14.48;7.45;;;;;;;-3.04;100.00;98601.84;6106632;19;20010;-71
2024/01/07 06:52:45;;;;;;;15.07;8.05;;;;;;;-3.18;100.00;98598.19;6107859;19;20015;-71
2024/01/07 06:54:45;;;;;;;14.70;8.18;;;;;;;-3.23;100.00;98609.03;6109443;19;20039;-71
2024/01/07 06:56:45;;;;;;;15.05;7.88;;;;;;;-3.25;100.00;98606.63;6109569;19;20002;-70
2024/01/07 06:58:46;;;;;;;13.38;7.38;;;;;;;-3.15;100.00;98611.94;6108717;19;20022;-70
2024/01/07 07:00:46;;;;;;;14.85;6.55;;;;;;;-3.14;100.00;98610.06;6107882;19;20428;-70
2024/01/07 07:02:46;;;;;;;15.70;8.45;;;;;;;-3.22;100.00;98616.09;6107581;19;20652;-70
2024/01/07 07:04:47;;;;;;;17.42;8.07;;;;;;;-3.22;100.00;98624.22;6109011;19;20359;-71
2024/01/07 07:06:48;;;;;;;16.48;8.00;;;;;;;-3.24;100.00;98629.09;6108576;19;20386;-70
2024/01/07 07:08:48;;;;;;;14.98;8.18;;;;;;;-3.26;100.00;98623.16;6109622;19;20007;-70
2024/01/07 07:10:48;;;;;;;14.48;7.32;;;;;;;-3.21;100.00;98629.34;6107543;19;20010;-70
2024/01/07 07:12:50;;;;;;;16.85;7.30;;;;;;;-3.26;100.00;98633.97;6105675;19;19999;-70
2024/01/07 07:14:50;;;;;;;14.00;7.85;;;;;;;-3.26;100.00;98633.97;6108412;19;20470;-70
2024/01/07 07:16:51;;;;;;;17.95;7.93;;;;;;;-3.21;100.00;98639.34;6105634;19;20006;-70
2024/01/07 07:18:52;;;;;;;14.90;7.13;;;;;;;-3.18;100.00;98641.47;6108094;19;19999;-70
2024/01/07 07:20:52;;;;;;;16.27;7.90;;;;;;;-3.24;100.00;98634.50;6108973;19;20007;-70
2024/01/07 07:22:52;;;;;;;13.75;7.10;;;;;;;-3.19;100.00;98648.78;6107007;19;20006;-70
2024/01/07 07:24:53;;;;;;;13.18;7.25;;;;;;;-3.22;100.00;98646.66;6108150;19;20389;-70
2024/01/07 07:26:53;;;;;;;14.95;8.02;;;;;;;-3.20;100.00;98647.19;6102673;19;20007;-70
2024/01/07 07:28:53;;;;;;;15.38;7.13;;;;;;;-3.23;100.00;98647.75;6106767;19;20032;-70
2024/01/07 07:30:53;;;;;;;12.93;7.45;;;;;;;-3.19;100.00;98653.41;6105952;19;20003;-70
2024/01/07 07:32:54;;;;;;;16.20;8.30;;;;;;;-3.22;100.00;98659.41;6105205;19;20020;-70
2024/01/07 07:34:54;;;;;;;13.73;7.15;;;;;;;-3.21;100.00;98663.72;6108812;19;20342;-70
2024/01/07 07:36:55;;;;;;;12.00;7.50;;;;;;;-3.15;100.00;98668.78;6106974;19;20003;-70
2024/01/07 07:38:55;;;;;;;16.85;7.40;;;;;;;-3.15;100.00;98673.38;6107430;19;20488;-70
2024/01/07 07:40:56;;;;;;;14.63;6.30;;;;;;;-3.12;100.00;98672.84;6108641;19;20826;-71
2024/01/07 07:42:56;;;;;;;13.45;7.63;;;;;;;-3.18;100.00;98671.25;6107427;19;20373;-71
2024/01/07 07:44:56;;;;;;;15.13;7.30;;;;;;;-3.19;100.00;98685.88;6108068;19;20458;-70
2024/01/07 07:46:57;;;;;;;11.73;6.70;;;;;;;-3.25;100.00;98684.31;6108267;19;20014;-70
2024/01/07 07:48:57;;;;;;;12.20;6.15;;;;;;;-3.23;100.00;98682.91;6108372;19;20029;-71
2024/01/07 07:50:57;;;;;;;12.05;6.70;;;;;;;-3.25;100.00;98687.81;6107185;19;20038;-71
2024/01/07 07:52:58;;;;;;;10.77;6.38;;;;;;;-3.21;100.00;98690.78;6107326;19;20037;-71
2024/01/07 07:54:58;;;;;;;15.60;6.60;;;;;;;-3.27;100.00;98694.59;6108971;19;20348;-71
2024/01/07 07:56:58;;;;;;;11.45;6.50;;;;;;;-3.32;100.00;98679.19;6108019;19;20034;-71
2024/01/07 07:58:59;;;;;;;11.18;6.50;;;;;;;-3.33;100.00;98685.72;6108623;19;20017;-71
2024/01/07 08:00:59;;;;;;;12.90;6.60;;;;;;;-3.28;100.00;98695.69;6107518;19;20394;-71
2024/01/07 08:02:59;;;;;;;10.27;5.97;;;;;;;-3.29;100.00;98702.19;6107188;19;20015;-71
2024/01/07 08:04:59;;;;;;;11.52;5.88;;;;;;;-3.32;100.00;98700.84;6108131;19;20041;-71
2024/01/07 08:07:00;;;;;;;14.13;6.25;;;;;;;-3.25;100.00;98697.81;6108990;19;20454;-71
2024/01/07 08:09:01;;;;;;;15.73;5.75;;;;;;;-3.33;100.00;98699.25;6108350;19;20007;-71
2024/01/07 08:11:01;;;;;;;11.40;6.55;;;;;;;-3.33;100.00;98710.06;6108206;19;20964;-70
2024/01/07 08:13:01;;;;;;;8.85;5.70;;;;;;;-3.32;100.00;98708.97;6105982;19;20058;-70
2024/01/07 08:15:02;;;;;;;10.90;5.93;;;;;;;-3.33;100.00;98710.06;6108176;19;20026;-71
2024/01/07 08:17:04;;;;;;;10.32;5.65;;;;;;;-3.31;100.00;98717.88;6107482;19;20010;-71
2024/01/07 08:19:04;;;;;;;11.00;5.75;;;;;;;-3.28;100.00;98714.63;6108340;19;20006;-70
2024/01/07 08:21:05;;;;;;;10.20;5.70;;;;;;;-3.25;100.00;98724.88;6107325;19;20010;-71
2024/01/07 08:23:05;;;;;;;14.45;6.35;;;;;;;-3.25;100.00;98719.47;6106048;19;20463;-71
2024/01/07 08:25:06;;;;;;;10.65;6.07;;;;;;;-3.27;100.00;98724.38;6107882;19;20475;-71
2024/01/07 08:27:06;;;;;;;10.18;5.55;;;;;;;-3.16;100.00;98726.72;6107095;19;20040;-71
2024/01/07 08:29:07;;;;;;;8.43;5.40;;;;;;;-3.23;100.00;98720.00;6106850;19;20368;-70
2024/01/07 08:31:07;;;;;;;14.48;5.72;;;;;;;-3.23;100.00;98726.22;6107759;19;20502;-71
2024/01/07 08:33:07;;;;;;;13.57;5.82;;;;;;;-3.19;100.00;98738.09;6105285;19;20007;-70
2024/01/07 08:35:09;;;;;;;11.07;5.55;;;;;;;-3.24;100.00;98730.00;6108611;19;20007;-70
2024/01/07 08:37:09;;;;;;;7.82;4.70;;;;;;;-3.21;100.00;98729.47;6107309;19;20074;-70
2024/01/07 08:39:10;;;;;;;9.05;5.30;;;;;;;-3.25;100.00;98738.41;6107472;19;20007;-70
2024/01/07 08:41:11;;;;;;;11.13;5.28;;;;;;;-3.18;100.00;98736.22;6108240;19;20070;-70
2024/01/07 08:43:11;;;;;;;11.32;5.72;;;;;;;-3.24;100.00;98734.63;6105969;19;20040;-70
2024/01/07 08:45:12;;;;;;;11.20;5.88;;;;;;;-3.29;100.00;98740.09;6108191;19;20354;-70
2024/01/07 08:47:12;;;;;;;10.23;6.15;;;;;;;-3.30;100.00;98752.00;6107913;19;20368;-70
2024/01/07 08:49:13;;;;;;;9.77;5.75;;;;;;;-3.27;100.00;98748.72;6107708;19;20017;-70
2024/01/07 08:51:14;;;;;;;10.02;4.75;;;;;;;-3.30;100.00;98750.09;6106927;19;20490;-70
2024/01/07 08:53:14;;;;;;;8.35;4.25;;;;;;;-3.29;100.00;98754.41;6106120;19;20010;-70
2024/01/07 08:55:15;;;;;;;7.72;4.47;;;;;;;-3.39;100.00;98746.38;6108222;19;20035;-70
2024/01/07 08:57:15;;;;;;;7.80;4.43;;;;;;;-3.40;100.00;98750.94;6106531;19;20090;-70
2024/01/07 08:59:16;;;;;;;11.10;5.15;;;;;;;-3.44;100.00;98762.63;6108124;19;20239;-70
2024/01/07 09:01:16;;;;;;;11.15;4.82;;;;;;;-3.55;100.00;98756.47;6107384;19;20643;-70
2024/01/07 09:03:17;;;;;;;8.93;4.65;;;;;;;-3.62;100.00;98761.38;6106393;19;20002;-70
2024/01/07 09:05:18;;;;;;;6.93;4.15;;;;;;;-3.62;100.00;98755.97;6106603;19;20046;-70
2024/01/07 09:07:19;;;;;;;6.78;4.10;;;;;;;-3.58;100.00;98757.00;6106253;19;20372;-70
2024/01/07 09:09:19;;;;;;;7.68;4.97;;;;;;;-3.60;100.00;98753.78;6108255;19;20018;-70
2024/01/07 09:11:19;;;;;;;8.57;4.60;;;;;;;-3.62;100.00;98774.91;6106362;19;20026;-70
2024/01/07 09:13:20;;;;;;;7.53;3.88;;;;;;;-3.62;100.00;98774.91;6106020;19;20561;-70